Time;durP1;ratioP1;P1;durP2;ratioP2;P2;SDS_P1;SDS_P2;PMS_P1;PMS_P2;Temp;Humidity;BMP_temperature;BMP_pressure;BME280_temperature;BME280_humidity;BME280_pressure;Samples;Min_cycle;Max_cycle;Signal;HPM_P1;HPM_P2
2023/02/17 00:01:46;;;;;;;3.50;3.20;;;17.20;63.20;;;;;;5065903;28;20194;-49
2023/02/17 00:04:16;;;;;;;4.87;3.37;;;17.20;63.20;;;;;;5063799;28;20217;-49
2023/02/17 00:06:48;;;;;;;4.97;3.77;;;17.20;63.20;;;;;;5059770;28;20258;-49
2023/02/17 00:09:21;;;;;;;4.30;3.90;;;17.20;63.20;;;;;;5068288;28;20611;-49
2023/02/17 00:11:52;;;;;;;4.43;3.37;;;17.20;63.20;;;;;;5069694;28;20213;-49
2023/02/17 00:14:24;;;;;;;3.90;3.50;;;17.20;63.30;;;;;;5042795;28;20193;-48
2023/02/17 00:16:57;;;;;;;4.10;3.70;;;17.20;63.20;;;;;;5064227;28;20576;-49
2023/02/17 00:19:26;;;;;;;4.33;3.60;;;17.20;63.20;;;;;;5066437;28;20265;-48
2023/02/17 00:22:01;;;;;;;3.37;3.07;;;17.20;63.30;;;;;;5067208;28;20241;-49
2023/02/17 00:24:33;;;;;;;3.67;3.37;;;17.20;63.30;;;;;;5050272;28;20186;-49
2023/02/17 00:27:02;;;;;;;4.10;3.50;;;17.20;63.20;;;;;;5050329;28;20202;-48
2023/02/17 00:29:33;;;;;;;3.13;2.93;;;17.20;63.20;;;;;;5062963;28;20530;-49
2023/02/17 00:32:04;;;;;;;3.93;3.10;;;17.10;63.20;;;;;;5055084;28;20304;-49
2023/02/17 00:34:37;;;;;;;4.67;3.37;;;17.20;63.20;;;;;;5067462;28;20264;-49
2023/02/17 00:37:05;;;;;;;4.80;3.10;;;17.10;63.20;;;;;;5068328;28;20530;-49
2023/02/17 00:39:36;;;;;;;3.57;3.27;;;17.10;63.20;;;;;;5058025;28;20359;-49
2023/02/17 00:42:08;;;;;;;3.77;2.73;;;17.20;63.20;;;;;;5068717;28;20244;-49
2023/02/17 00:44:41;;;;;;;3.77;3.13;;;17.10;63.20;;;;;;5070316;28;20565;-48
2023/02/17 00:47:11;;;;;;;3.37;3.00;;;17.10;63.20;;;;;;5071304;28;20267;-49
2023/02/17 00:49:42;;;;;;;3.00;2.60;;;17.10;63.30;;;;;;5049911;28;20201;-49
2023/02/17 00:52:12;;;;;;;3.00;2.70;;;17.20;63.30;;;;;;5067899;28;20221;-49
2023/02/17 00:54:43;;;;;;;3.20;2.90;;;17.10;63.20;;;;;;5070789;28;20217;-49
2023/02/17 00:57:25;;;;;;;3.07;2.77;;;17.10;63.20;;;;;;5071023;28;20194;-49
2023/02/17 00:59:53;;;;;;;3.13;2.83;;;17.10;63.20;;;;;;5068583;28;20201;-48
2023/02/17 01:02:27;;;;;;;2.60;2.40;;;17.20;63.30;;;;;;5070662;28;20198;-49
2023/02/17 01:04:58;;;;;;;2.93;2.57;;;17.10;63.20;;;;;;5067501;28;20587;-49
2023/02/17 01:07:30;;;;;;;3.53;3.23;;;17.10;63.20;;;;;;5068697;28;20210;-49
2023/02/17 01:10:04;;;;;;;3.33;2.87;;;17.10;63.20;;;;;;5035948;28;20201;-49
2023/02/17 01:12:32;;;;;;;3.30;3.00;;;17.10;63.20;;;;;;5053106;28;20700;-48
2023/02/17 01:15:04;;;;;;;3.00;2.70;;;17.10;63.20;;;;;;5070592;28;20209;-49
2023/02/17 01:17:36;;;;;;;2.90;2.60;;;17.10;63.20;;;;;;5064358;28;20198;-49
2023/02/17 01:20:05;;;;;;;3.10;2.80;;;17.10;63.20;;;;;;5069584;28;20233;-48
2023/02/17 01:22:40;;;;;;;3.03;2.73;;;17.10;63.20;;;;;;5069944;28;20538;-49
2023/02/17 01:25:11;;;;;;;3.00;2.70;;;17.10;63.30;;;;;;5066637;28;20194;-48
2023/02/17 01:27:41;;;;;;;3.50;2.77;;;17.10;63.30;;;;;;5061145;28;20225;-49
2023/02/17 01:30:12;;;;;;;4.33;2.80;;;17.10;63.30;;;;;;5068444;28;20279;-48
2023/02/17 01:32:43;;;;;;;2.90;2.60;;;17.10;63.30;;;;;;5069958;28;20801;-49
2023/02/17 01:35:16;;;;;;;2.40;2.20;;;17.10;63.30;;;;;;5063124;28;20206;-49
2023/02/17 01:37:46;;;;;;;2.97;2.40;;;17.10;63.30;;;;;;5050476;28;20197;-49
2023/02/17 01:40:19;;;;;;;2.50;2.30;;;17.10;63.30;;;;;;5061809;28;20290;-49
2023/02/17 01:42:51;;;;;;;2.87;2.60;;;17.10;63.30;;;;;;5069851;28;20217;-49
2023/02/17 01:45:31;;;;;;;3.07;2.77;;;17.10;63.30;;;;;;5063378;28;20201;-49
2023/02/17 01:48:20;;;;;;;2.80;2.53;;;17.10;63.20;;;;;;5067530;28;20285;-49
2023/02/17 01:51:06;;;;;;;2.47;2.27;;;17.10;63.30;;;;;;5056310;28;20189;-49
2023/02/17 01:53:41;;;;;;;2.10;1.90;;;17.10;63.30;;;;;;5064409;28;20213;-49
2023/02/17 01:56:13;;;;;;;2.50;2.20;;;17.10;63.30;;;;;;5033874;28;20205;-48
2023/02/17 01:58:47;;;;;;;2.63;2.33;;;17.10;63.40;;;;;;5052148;28;20190;-49
2023/02/17 02:01:24;;;;;;;2.30;2.10;;;17.10;63.30;;;;;;5069256;28;20241;-48
2023/02/17 02:03:52;;;;;;;3.07;2.13;;;17.10;63.30;;;;;;5064913;28;20217;-49
2023/02/17 02:06:29;;;;;;;2.40;2.20;;;17.10;63.30;;;;;;5052350;28;20288;-48
2023/02/17 02:09:23;;;;;;;2.00;1.80;;;17.10;63.30;;;;;;5068414;28;20194;-49
2023/02/17 02:11:54;;;;;;;2.30;2.10;;;17.10;63.30;;;;;;5067372;28;20197;-49
2023/02/17 02:14:34;;;;;;;1.77;1.67;;;17.10;63.30;;;;;;5068838;28;20198;-49
2023/02/17 02:17:32;;;;;;;2.10;1.90;;;17.10;63.30;;;;;;5059709;28;20231;-49
2023/02/17 02:20:38;;;;;;;2.40;2.20;;;17.10;63.20;;;;;;5068923;28;20230;-49
2023/02/17 02:23:19;;;;;;;2.37;2.00;;;17.10;63.20;;;;;;5066601;28;20189;-49
2023/02/17 02:26:22;;;;;;;1.87;1.60;;;17.10;63.30;;;;;;5055873;28;20198;-49
2023/02/17 02:29:28;;;;;;;1.90;1.70;;;17.10;63.40;;;;;;5052653;28;20209;-49
2023/02/17 02:32:29;;;;;;;1.70;1.60;;;17.10;63.20;;;;;;5067481;28;20186;-49
2023/02/17 02:35:46;;;;;;;2.60;1.80;;;17.10;63.40;;;;;;5055381;28;20220;-49
2023/02/17 02:38:43;;;;;;;2.20;1.90;;;17.10;63.40;;;;;;5063685;28;20600;-49
2023/02/17 02:41:23;;;;;;;2.53;1.80;;;17.10;63.40;;;;;;5047793;28;20212;-49
2023/02/17 02:43:51;;;;;;;1.63;1.53;;;17.10;63.40;;;;;;5047260;28;20201;-49
2023/02/17 02:46:23;;;;;;;3.20;1.60;;;17.00;63.40;;;;;;5044151;28;20601;-49
2023/02/17 02:48:55;;;;;;;11.70;1.90;;;17.10;63.40;;;;;;5045125;28;20229;-49
2023/02/17 02:52:10;;;;;;;2.00;1.80;;;17.00;63.30;;;;;;5066221;28;20221;-49
2023/02/17 02:55:06;;;;;;;2.13;1.93;;;17.10;63.40;;;;;;4969481;28;20225;-49
2023/02/17 02:58:20;;;;;;;1.83;1.50;;;17.10;63.40;;;;;;4982411;28;20283;-49
2023/02/17 03:01:20;;;;;;;2.40;1.83;;;17.10;63.40;;;;;;5053010;28;20596;-48
2023/02/17 03:04:08;;;;;;;2.03;1.50;;;17.10;63.40;;;;;;5060155;28;23914;-48
2023/02/17 03:06:45;;;;;;;1.70;1.60;;;17.00;63.40;;;;;;5054164;28;20228;-49
2023/02/17 03:09:21;;;;;;;1.57;1.37;;;17.10;63.40;;;;;;5051307;28;20189;-49
2023/02/17 03:11:59;;;;;;;1.30;1.20;;;17.00;63.30;;;;;;5058225;28;20669;-49
2023/02/17 03:14:36;;;;;;;1.70;1.57;;;17.10;63.40;;;;;;5060515;28;20254;-49
2023/02/17 03:17:08;;;;;;;1.77;1.37;;;17.00;63.30;;;;;;5034444;28;20222;-49
2023/02/17 03:19:39;;;;;;;1.73;1.63;;;17.00;63.30;;;;;;5031831;28;20244;-49
2023/02/17 03:22:21;;;;;;;1.60;1.50;;;17.10;63.30;;;;;;5039586;28;20226;-49
2023/02/17 03:24:51;;;;;;;2.27;1.80;;;17.10;63.30;;;;;;5051196;28;20198;-49
2023/02/17 03:27:21;;;;;;;2.03;1.23;;;17.10;63.90;;;;;;5057677;28;20229;-49
2023/02/17 03:29:52;;;;;;;1.73;1.40;;;17.10;63.30;;;;;;5060176;28;20258;-48
2023/02/17 03:32:21;;;;;;;2.87;1.40;;;17.10;63.20;;;;;;5067726;28;20197;-49
2023/02/17 03:34:53;;;;;;;2.13;1.40;;;17.10;63.20;;;;;;5070931;28;20193;-49
2023/02/17 03:37:23;;;;;;;1.87;1.37;;;17.00;63.20;;;;;;5062935;28;20225;-49
2023/02/17 03:39:52;;;;;;;1.97;1.40;;;17.10;63.20;;;;;;5052908;28;20342;-48
2023/02/17 03:42:24;;;;;;;1.50;1.27;;;17.00;63.20;;;;;;5046002;28;20651;-48
2023/02/17 03:44:55;;;;;;;2.60;1.40;;;17.10;63.20;;;;;;5069263;28;20623;-49
2023/02/17 03:47:24;;;;;;;1.17;1.07;;;17.00;63.10;;;;;;5066936;28;20655;-49
2023/02/17 03:49:52;;;;;;;1.07;0.97;;;17.00;63.20;;;;;;5056732;28;20202;-49
2023/02/17 03:52:24;;;;;;;1.67;1.10;;;17.00;63.10;;;;;;5061267;28;20756;-48
2023/02/17 03:54:54;;;;;;;1.67;1.27;;;17.10;63.20;;;;;;5066415;28;20568;-49
2023/02/17 03:57:26;;;;;;;2.50;1.10;;;17.10;63.20;;;;;;5072231;28;20233;-49
2023/02/17 03:59:56;;;;;;;2.10;0.80;;;17.00;63.10;;;;;;5065284;28;20194;-49
2023/02/17 04:02:29;;;;;;;1.00;0.90;;;17.00;63.00;;;;;;5054236;28;20232;-48
2023/02/17 04:04:59;;;;;;;1.10;1.00;;;17.00;63.00;;;;;;5055315;28;20275;-49
2023/02/17 04:07:31;;;;;;;1.30;1.17;;;17.00;63.00;;;;;;5062845;28;20209;-49
2023/02/17 04:10:01;;;;;;;1.37;1.27;;;17.10;63.00;;;;;;5064702;28;20212;-49
2023/02/17 04:12:34;;;;;;;1.73;1.00;;;17.00;63.00;;;;;;5066532;28;20194;-49
2023/02/17 04:15:07;;;;;;;1.57;1.20;;;17.00;63.00;;;;;;5066252;28;20202;-49
2023/02/17 04:17:39;;;;;;;1.10;1.00;;;17.10;63.10;;;;;;5061882;28;20236;-48
2023/02/17 04:20:11;;;;;;;1.73;1.20;;;17.00;63.00;;;;;;5071629;28;20236;-49
2023/02/17 04:22:53;;;;;;;1.10;1.00;;;17.00;63.00;;;;;;5070053;28;20602;-49
2023/02/17 04:25:24;;;;;;;1.27;1.00;;;17.00;63.10;;;;;;5062604;28;20197;-49
2023/02/17 04:27:55;;;;;;;1.00;0.97;;;17.10;63.10;;;;;;5077795;28;20686;-49
2023/02/17 04:30:28;;;;;;;1.10;0.90;;;17.00;63.00;;;;;;5078601;28;20189;-49
2023/02/17 04:32:59;;;;;;;1.00;0.70;;;17.00;63.00;;;;;;5070409;28;20194;-49
2023/02/17 04:35:31;;;;;;;1.10;1.00;;;17.00;63.00;;;;;;5071161;28;20185;-48
2023/02/17 04:38:00;;;;;;;1.37;1.27;;;17.00;63.00;;;;;;5071008;28;20200;-49
2023/02/17 04:40:34;;;;;;;1.17;0.90;;;17.00;63.00;;;;;;5072017;28;20227;-49
2023/02/17 04:43:02;;;;;;;2.50;0.97;;;17.00;63.00;;;;;;5063089;28;20643;-49
2023/02/17 04:45:36;;;;;;;1.40;1.20;;;17.00;63.00;;;;;;5071385;28;20315;-48
2023/02/17 04:48:08;;;;;;;0.97;0.83;;;17.00;63.00;;;;;;5069800;28;20228;-48
2023/02/17 04:50:40;;;;;;;0.90;0.90;;;17.00;62.90;;;;;;5069080;28;20189;-49
2023/02/17 04:53:09;;;;;;;0.83;0.83;;;17.00;62.90;;;;;;5067242;28;20213;-49
2023/02/17 04:55:42;;;;;;;0.77;0.70;;;17.00;63.60;;;;;;5068033;28;20493;-49
2023/02/17 04:58:14;;;;;;;0.80;0.80;;;17.00;62.90;;;;;;5076725;28;20197;-49
2023/02/17 05:00:49;;;;;;;1.30;0.90;;;17.00;62.90;;;;;;5070390;28;20239;-49
2023/02/17 05:03:19;;;;;;;0.90;0.80;;;17.00;62.90;;;;;;5048896;28;20300;-49
2023/02/17 05:05:51;;;;;;;0.80;0.80;;;17.00;62.90;;;;;;5063461;28;20267;-49
2023/02/17 05:08:22;;;;;;;2.60;0.67;;;17.00;62.90;;;;;;5048767;28;20594;-49
2023/02/17 05:10:57;;;;;;;1.47;1.20;;;17.10;63.00;;;;;;5075212;28;20213;-48
2023/02/17 05:13:29;;;;;;;0.80;0.80;;;17.00;63.00;;;;;;5074637;28;20201;-49
2023/02/17 05:16:00;;;;;;;0.80;0.53;;;17.00;63.00;;;;;;5067370;28;20686;-49
2023/02/17 05:18:32;;;;;;;0.77;0.70;;;17.00;62.90;;;;;;5055416;28;20229;-49
2023/02/17 05:21:05;;;;;;;1.10;1.00;;;17.00;62.90;;;;;;5072642;28;20681;-49
2023/02/17 05:23:39;;;;;;;0.97;0.90;;;17.00;63.00;;;;;;5081567;28;20634;-48
2023/02/17 05:26:11;;;;;;;1.30;0.80;;;17.00;62.90;;;;;;5074337;28;20250;-49
2023/02/17 05:28:40;;;;;;;1.00;0.90;;;17.00;63.00;;;;;;5082031;28;20248;-49
2023/02/17 05:31:12;;;;;;;1.53;1.00;;;17.00;62.90;;;;;;5081490;28;20214;-49
2023/02/17 05:33:43;;;;;;;0.83;0.70;;;17.00;63.00;;;;;;5061250;28;20189;-48
2023/02/17 05:36:12;;;;;;;1.47;0.80;;;17.00;63.00;;;;;;5070984;28;20197;-49
2023/02/17 05:38:45;;;;;;;1.00;0.80;;;17.00;63.00;;;;;;5042444;28;20603;-48
2023/02/17 05:41:17;;;;;;;0.80;0.80;;;17.00;62.90;;;;;;5062611;28;20209;-48
2023/02/17 05:43:48;;;;;;;0.93;0.80;;;17.00;62.90;;;;;;5079407;28;20197;-49
2023/02/17 05:46:19;;;;;;;1.53;0.83;;;17.00;63.00;;;;;;5052232;28;20205;-49
2023/02/17 05:48:52;;;;;;;1.10;0.90;;;17.00;63.00;;;;;;5071551;28;20220;-49
2023/02/17 05:51:25;;;;;;;1.20;0.73;;;17.00;63.00;;;;;;5077517;28;20232;-49
2023/02/17 05:53:53;;;;;;;1.07;0.80;;;17.00;62.90;;;;;;5080957;28;20579;-48
2023/02/17 05:56:24;;;;;;;1.23;0.90;;;17.00;62.90;;;;;;5073164;28;20784;-49
2023/02/17 05:58:54;;;;;;;1.13;0.90;;;17.00;63.00;;;;;;5051286;28;20251;-49
2023/02/17 06:01:23;;;;;;;1.30;1.10;;;17.00;63.00;;;;;;5059138;28;20208;-49
2023/02/17 06:03:52;;;;;;;1.10;1.00;;;17.00;62.90;;;;;;5064327;28;20202;-49
2023/02/17 06:06:21;;;;;;;1.77;1.10;;;17.00;63.00;;;;;;5056430;28;20606;-48
2023/02/17 06:08:53;;;;;;;1.30;1.20;;;17.00;63.00;;;;;;5067809;28;20209;-49
2023/02/17 06:11:23;;;;;;;1.47;1.23;;;17.00;62.90;;;;;;5072574;28;20201;-49
2023/02/17 06:13:54;;;;;;;2.03;1.20;;;17.00;62.90;;;;;;5068314;28;20269;-49
2023/02/17 06:16:24;;;;;;;1.40;1.30;;;17.00;62.80;;;;;;5063099;28;20209;-48
2023/02/17 06:18:53;;;;;;;3.07;1.07;;;17.00;62.80;;;;;;5069831;28;20233;-48
2023/02/17 06:21:22;;;;;;;1.60;1.40;;;17.00;62.80;;;;;;5083817;28;20206;-49
2023/02/17 06:23:49;;;;;;;1.90;1.43;;;17.00;62.80;;;;;;5066083;28;20220;-49
2023/02/17 06:26:20;;;;;;;1.83;1.50;;;17.00;62.80;;;;;;5066510;28;20204;-49
2023/02/17 06:28:52;;;;;;;1.90;1.47;;;17.00;62.80;;;;;;5068900;28;20268;-48
2023/02/17 06:31:22;;;;;;;1.47;1.37;;;16.90;63.00;;;;;;5079099;28;20197;-49
2023/02/17 06:33:54;;;;;;;3.07;1.50;;;17.00;63.50;;;;;;5081613;28;20624;-48
2023/02/17 06:36:25;;;;;;;4.87;1.70;;;17.00;63.90;;;;;;5100233;28;20648;-45
2023/02/17 06:38:55;;;;;;;1.73;1.63;;;17.00;64.00;;;;;;5078778;28;20194;-45
2023/02/17 06:41:24;;;;;;;3.47;2.10;;;17.00;64.10;;;;;;5072791;28;20266;-45
2023/02/17 06:43:54;;;;;;;2.60;1.83;;;17.10;64.00;;;;;;5069579;28;21072;-45
2023/02/17 06:46:25;;;;;;;3.80;1.60;;;17.20;64.00;;;;;;5085934;28;20608;-46
2023/02/17 06:48:58;;;;;;;7.23;1.87;;;17.20;63.80;;;;;;5074473;28;20214;-46
2023/02/17 06:51:29;;;;;;;2.90;2.07;;;17.30;63.70;;;;;;5064643;28;20193;-45
2023/02/17 06:53:57;;;;;;;5.53;1.93;;;17.40;63.50;;;;;;5073631;28;20210;-46
2023/02/17 06:56:27;;;;;;;2.63;2.10;;;17.40;63.20;;;;;;5083640;28;20197;-45
2023/02/17 06:59:00;;;;;;;3.07;2.20;;;17.40;62.90;;;;;;5074068;28;20228;-46
2023/02/17 07:01:29;;;;;;;3.20;1.70;;;17.50;62.70;;;;;;5075287;28;20198;-49
2023/02/17 07:03:58;;;;;;;3.33;1.93;;;17.50;62.60;;;;;;5076990;28;20209;-49
2023/02/17 07:06:31;;;;;;;3.33;2.10;;;17.50;62.40;;;;;;5055199;28;20185;-49
2023/02/17 07:09:02;;;;;;;2.27;2.07;;;17.50;62.30;;;;;;5079584;28;20255;-49
2023/02/17 07:11:31;;;;;;;3.77;2.37;;;17.50;62.10;;;;;;5104054;28;20200;-45
2023/02/17 07:13:59;;;;;;;3.00;1.83;;;17.50;61.90;;;;;;5061734;28;20676;-46
2023/02/17 07:16:30;;;;;;;2.60;2.40;;;17.60;62.10;;;;;;5086323;28;20270;-48
2023/02/17 07:19:00;;;;;;;2.60;2.40;;;17.60;62.00;;;;;;5075949;28;20244;-49
2023/02/17 07:21:32;;;;;;;4.40;2.20;;;17.60;61.80;;;;;;5086647;28;20189;-45
2023/02/17 07:24:08;;;;;;;3.67;2.07;;;17.60;61.80;;;;;;5086054;28;20189;-45
2023/02/17 07:26:39;;;;;;;2.83;2.13;;;17.60;62.40;;;;;;5064554;28;20197;-45
2023/02/17 07:29:08;;;;;;;2.67;2.00;;;17.60;61.70;;;;;;5049653;28;20243;-45
2023/02/17 07:31:40;;;;;;;3.10;2.20;;;17.50;62.30;;;;;;5068467;28;20203;-45
2023/02/17 07:34:11;;;;;;;2.73;2.47;;;17.60;61.60;;;;;;5082098;28;20315;-45
2023/02/17 07:36:40;;;;;;;3.33;2.43;;;17.50;61.50;;;;;;5077943;28;20243;-49
2023/02/17 07:39:12;;;;;;;2.53;2.07;;;17.60;61.50;;;;;;5085590;28;20534;-49
2023/02/17 07:41:45;;;;;;;2.80;2.30;;;17.60;61.50;;;;;;5079182;28;20212;-49
2023/02/17 07:44:13;;;;;;;6.10;2.63;;;17.60;61.30;;;;;;5078494;28;20732;-49
2023/02/17 07:46:43;;;;;;;5.03;2.97;;;17.60;62.00;;;;;;5089384;28;20197;-45
2023/02/17 07:49:16;;;;;;;4.33;2.50;;;17.70;61.60;;;;;;5078527;28;20267;-45
2023/02/17 07:51:49;;;;;;;2.70;2.43;;;17.80;61.50;;;;;;5080093;28;20191;-48
2023/02/17 07:54:17;;;;;;;3.80;2.50;;;17.80;61.10;;;;;;5089709;28;20532;-49
2023/02/17 07:56:48;;;;;;;4.20;2.57;;;17.80;60.80;;;;;;5089189;28;20637;-48
2023/02/17 07:59:17;;;;;;;6.40;3.57;;;17.80;60.60;;;;;;5090710;28;20212;-48
2023/02/17 08:01:49;;;;;;;38.27;11.30;;;17.80;60.70;;;;;;5088517;28;20806;-48
2023/02/17 08:04:18;;;;;;;104.37;24.37;;;17.80;61.10;;;;;;5087465;28;20224;-48
2023/02/17 08:06:47;;;;;;;115.03;26.13;;;17.80;61.70;;;;;;5063889;28;20527;-44
2023/02/17 08:15:10;;;;;;;83.20;22.20;;;17.80;61.70;;;;;;5078220;28;20731;-45
2023/02/17 08:17:38;;;;;;;74.30;20.80;;;17.80;61.60;;;;;;5057089;28;20216;-45
2023/02/17 08:20:12;;;;;;;76.10;21.83;;;17.80;61.60;;;;;;5083776;28;20229;-45
2023/02/17 08:22:43;;;;;;;67.93;17.93;;;17.70;61.40;;;;;;5066165;28;20205;-44
2023/02/17 08:25:14;;;;;;;61.23;16.57;;;17.70;61.30;;;;;;5075300;28;20626;-44
2023/02/17 08:27:44;;;;;;;54.40;15.63;;;17.70;61.60;;;;;;5065529;28;20217;-44
2023/02/17 08:30:17;;;;;;;48.47;14.30;;;17.70;61.60;;;;;;5084826;28;20193;-44
2023/02/17 08:32:56;;;;;;;52.17;14.07;;;17.70;61.40;;;;;;5086044;28;20201;-44
2023/02/17 08:35:31;;;;;;;41.20;12.13;;;17.60;61.60;;;;;;5072654;28;20186;-44
2023/02/17 08:37:58;;;;;;;40.13;12.23;;;17.60;61.50;;;;;;5085404;28;20520;-44
2023/02/17 08:40:30;;;;;;;35.30;11.70;;;17.50;62.10;;;;;;5084156;28;20213;-48
2023/02/17 08:43:02;;;;;;;39.13;11.23;;;17.60;61.50;;;;;;5074017;28;20798;-48
2023/02/17 08:45:33;;;;;;;26.80;9.73;;;17.50;61.60;;;;;;5080349;28;20196;-50
2023/02/17 08:48:04;;;;;;;30.13;8.97;;;17.50;61.50;;;;;;5060876;28;20244;-50
2023/02/17 08:50:34;;;;;;;24.60;8.07;;;17.50;61.80;;;;;;5063503;28;20251;-49
2023/02/17 08:53:05;;;;;;;22.20;7.67;;;17.50;61.70;;;;;;5080035;28;20205;-49
2023/02/17 08:55:36;;;;;;;23.63;7.43;;;17.50;61.70;;;;;;5069943;28;20194;-45
2023/02/17 08:58:18;;;;;;;20.20;6.83;;;17.50;61.70;;;;;;5075469;28;20219;-46
2023/02/17 09:00:50;;;;;;;25.80;7.47;;;17.50;61.80;;;;;;5073704;28;20192;-46
2023/02/17 09:03:24;;;;;;;14.40;6.20;;;17.50;61.80;;;;;;5071703;28;20200;-45
2023/02/17 09:05:58;;;;;;;17.70;5.83;;;17.50;61.70;;;;;;5066180;28;20206;-45
2023/02/17 09:08:30;;;;;;;11.97;5.17;;;17.50;61.70;;;;;;5079425;28;20241;-45
2023/02/17 09:10:59;;;;;;;13.40;5.20;;;17.50;61.70;;;;;;5090606;28;20223;-49
2023/02/17 09:13:27;;;;;;;11.23;4.43;;;17.50;61.80;;;;;;5082940;28;20208;-49
2023/02/17 09:15:59;;;;;;;11.17;4.70;;;17.40;61.70;;;;;;5068008;28;20623;-48
2023/02/17 09:18:35;;;;;;;11.67;5.10;;;17.40;61.70;;;;;;5081569;28;20298;-48
2023/02/17 09:21:12;;;;;;;13.37;4.73;;;17.40;61.70;;;;;;5087492;28;20197;-45
2023/02/17 09:23:43;;;;;;;11.23;4.67;;;17.40;61.60;;;;;;5061382;28;20203;-45
2023/02/17 09:26:16;;;;;;;8.37;3.87;;;17.40;61.70;;;;;;5089721;28;20853;-49
2023/02/17 09:28:51;;;;;;;7.37;3.47;;;17.40;61.70;;;;;;5061501;28;20244;-48
2023/02/17 09:31:26;;;;;;;9.17;3.87;;;17.40;61.70;;;;;;5086658;28;20596;-48
2023/02/17 09:33:56;;;;;;;7.70;3.70;;;17.40;61.70;;;;;;5079307;28;20645;-48
2023/02/17 09:36:36;;;;;;;6.23;3.27;;;17.40;61.70;;;;;;5084542;28;20250;-45
2023/02/17 09:39:13;;;;;;;6.13;3.07;;;17.40;61.70;;;;;;5069797;28;20258;-45
2023/02/17 09:41:50;;;;;;;7.60;3.40;;;17.40;61.60;;;;;;5081528;28;20209;-49
2023/02/17 09:44:25;;;;;;;7.40;3.30;;;17.40;61.80;;;;;;5058335;28;20204;-49
2023/02/17 09:47:26;;;;;;;4.97;2.80;;;17.40;61.60;;;;;;5065225;28;20756;-45
2023/02/17 09:50:05;;;;;;;3.50;2.30;;;17.40;62.20;;;;;;5082648;28;20260;-45
2023/02/17 09:52:55;;;;;;;5.63;2.80;;;17.40;61.60;;;;;;5073518;28;20268;-49
2023/02/17 09:55:43;;;;;;;7.47;3.07;;;17.40;61.60;;;;;;5074408;28;20374;-48
2023/02/17 09:58:23;;;;;;;5.23;2.80;;;17.40;61.60;;;;;;5077478;28;20541;-48
2023/02/17 10:00:57;;;;;;;5.20;2.27;;;17.40;61.60;;;;;;5063913;28;20193;-48
2023/02/17 10:03:59;;;;;;;4.97;2.60;;;17.40;61.50;;;;;;5075491;28;20247;-48
2023/02/17 10:06:42;;;;;;;3.90;2.50;;;17.40;62.10;;;;;;5057156;28;20999;-48
2023/02/17 10:09:39;;;;;;;4.77;2.60;;;17.40;61.40;;;;;;5085507;28;20217;-48
2023/02/17 10:12:14;;;;;;;2.73;2.13;;;17.40;61.50;;;;;;5089648;28;20193;-45
2023/02/17 10:15:16;;;;;;;3.40;2.27;;;17.40;61.50;;;;;;5059958;28;20185;-45
2023/02/17 10:17:56;;;;;;;2.63;1.90;;;17.40;61.50;;;;;;5074585;28;20655;-48
2023/02/17 10:20:39;;;;;;;3.53;1.87;;;17.40;61.60;;;;;;5063789;28;20717;-45
2023/02/17 10:23:28;;;;;;;2.70;2.20;;;17.40;61.50;;;;;;5052659;28;20310;-45
2023/02/17 10:26:38;;;;;;;3.83;2.10;;;17.40;61.60;;;;;;5061659;28;20237;-45
2023/02/17 10:29:29;;;;;;;3.43;2.20;;;17.40;61.60;;;;;;5063433;28;20220;-44
2023/02/17 10:32:24;;;;;;;2.53;1.90;;;17.40;61.60;;;;;;5054391;28;20556;-49
2023/02/17 10:35:23;;;;;;;2.53;1.63;;;17.40;61.60;;;;;;5046536;28;20186;-49
2023/02/17 10:38:16;;;;;;;3.70;2.63;;;17.40;61.50;;;;;;5054607;28;20193;-45
2023/02/17 10:40:52;;;;;;;2.37;1.87;;;17.40;61.50;;;;;;5066416;28;20220;-45
2023/02/17 10:43:36;;;;;;;3.07;1.80;;;17.40;61.60;;;;;;5067663;28;20288;-45
2023/02/17 10:46:14;;;;;;;2.43;1.57;;;17.40;61.60;;;;;;5061690;28;20193;-48
2023/02/17 10:49:00;;;;;;;2.17;1.67;;;17.40;61.70;;;;;;5067417;28;20294;-49
2023/02/17 10:51:35;;;;;;;2.17;1.83;;;17.40;61.70;;;;;;5060523;28;20225;-45
2023/02/17 10:54:33;;;;;;;2.20;1.97;;;17.40;61.70;;;;;;5042759;28;20221;-45
2023/02/17 10:57:18;;;;;;;2.07;1.80;;;17.40;61.80;;;;;;5039142;28;20196;-45
2023/02/17 10:59:49;;;;;;;2.50;1.50;;;17.40;61.60;;;;;;5071742;28;20209;-44
2023/02/17 11:02:33;;;;;;;1.93;1.43;;;17.40;61.70;;;;;;5029928;28;20202;-49
2023/02/17 11:05:00;;;;;;;1.80;1.70;;;17.40;61.80;;;;;;5056143;28;20461;-49
2023/02/17 11:07:44;;;;;;;2.17;1.70;;;17.40;61.70;;;;;;5066617;28;20243;-45
2023/02/17 11:10:36;;;;;;;2.23;1.47;;;17.40;61.90;;;;;;5047366;28;20229;-49
2023/02/17 11:13:43;;;;;;;2.77;1.97;;;17.40;61.70;;;;;;5055301;28;20197;-48
2023/02/17 11:16:25;;;;;;;1.97;1.50;;;17.40;61.70;;;;;;5061433;28;20217;-49
2023/02/17 11:18:57;;;;;;;1.50;1.20;;;17.40;61.80;;;;;;5072466;28;20230;-48
2023/02/17 11:21:33;;;;;;;1.93;1.70;;;17.40;61.80;;;;;;5043704;28;20521;-45
2023/02/17 11:24:12;;;;;;;1.43;1.17;;;17.40;61.90;;;;;;5045458;28;20265;-45
2023/02/17 11:26:53;;;;;;;1.47;1.37;;;17.40;61.80;;;;;;5068395;28;20189;-45
2023/02/17 11:29:27;;;;;;;2.17;1.50;;;17.40;61.90;;;;;;5050453;28;20229;-45
2023/02/17 11:32:12;;;;;;;1.40;1.30;;;17.40;61.90;;;;;;5071649;28;20199;-45
2023/02/17 11:34:43;;;;;;;1.40;1.30;;;17.40;61.90;;;;;;5051219;28;20193;-45
2023/02/17 11:37:23;;;;;;;1.40;0.93;;;17.40;61.90;;;;;;5050037;28;20269;-49
2023/02/17 11:39:54;;;;;;;1.23;1.17;;;17.40;61.90;;;;;;5041662;28;20210;-49
2023/02/17 11:42:32;;;;;;;2.40;1.40;;;17.40;61.80;;;;;;5049591;28;20205;-49
2023/02/17 11:45:27;;;;;;;1.60;1.40;;;17.40;61.90;;;;;;5058507;28;20185;-49
2023/02/17 11:48:19;;;;;;;1.33;1.20;;;17.40;61.70;;;;;;5069853;28;20185;-45
2023/02/17 11:51:09;;;;;;;1.60;1.17;;;17.40;61.70;;;;;;5066011;28;20549;-45
2023/02/17 11:54:17;;;;;;;0.97;0.80;;;17.40;61.80;;;;;;5035415;28;20228;-45
2023/02/17 11:57:22;;;;;;;1.50;1.13;;;17.40;61.80;;;;;;5068590;28;20767;-45
2023/02/17 12:00:10;;;;;;;0.80;0.80;;;17.40;61.80;;;;;;5059002;28;20240;-45
2023/02/17 12:03:21;;;;;;;0.80;0.80;;;17.40;61.80;;;;;;5069200;28;20197;-48
2023/02/17 12:06:20;;;;;;;1.67;1.00;;;17.40;61.80;;;;;;5052753;28;20197;-45
2023/02/17 12:09:09;;;;;;;1.13;0.90;;;17.50;61.90;;;;;;5058258;28;20666;-45
2023/02/17 12:12:11;;;;;;;1.50;0.83;;;17.50;61.90;;;;;;5079490;28;20208;-48
2023/02/17 12:14:59;;;;;;;0.83;0.83;;;17.40;61.90;;;;;;5068952;28;20189;-48
2023/02/17 12:18:27;;;;;;;0.83;0.83;;;17.50;62.00;;;;;;5065328;28;20198;-48
2023/02/17 12:21:24;;;;;;;1.20;0.73;;;17.50;61.90;;;;;;5063898;28;20213;-49
2023/02/17 12:24:14;;;;;;;1.13;0.80;;;17.40;61.80;;;;;;5064155;28;20209;-49
2023/02/17 12:27:10;;;;;;;1.33;1.00;;;17.50;61.90;;;;;;5067985;28;20213;-49
2023/02/17 12:30:08;;;;;;;0.90;0.77;;;17.40;61.90;;;;;;5014812;28;20242;-48
2023/02/17 12:33:16;;;;;;;0.70;0.70;;;17.50;61.80;;;;;;5050593;28;20198;-48
2023/02/17 12:36:13;;;;;;;1.43;0.90;;;17.40;61.80;;;;;;5063819;28;20677;-48
2023/02/17 12:39:04;;;;;;;1.13;1.10;;;17.50;61.90;;;;;;5059089;28;20547;-48
2023/02/17 12:41:44;;;;;;;1.10;1.00;;;17.50;61.90;;;;;;5062675;28;20614;-45
2023/02/17 12:44:52;;;;;;;1.00;0.70;;;17.50;61.90;;;;;;5070115;28;20202;-45
2023/02/17 12:47:56;;;;;;;0.80;0.80;;;17.40;61.90;;;;;;5066524;28;20209;-45
2023/02/17 12:50:37;;;;;;;0.80;0.80;;;17.50;61.90;;;;;;5055939;28;20220;-45
2023/02/17 12:53:22;;;;;;;0.70;0.70;;;17.50;62.00;;;;;;5066799;28;20213;-45
2023/02/17 12:56:03;;;;;;;0.80;0.80;;;17.50;62.00;;;;;;5069007;28;20198;-45
2023/02/17 12:58:38;;;;;;;1.13;1.03;;;17.50;62.00;;;;;;5078740;28;20193;-45
2023/02/17 13:01:15;;;;;;;0.87;0.80;;;17.50;62.00;;;;;;5061148;28;20209;-45
2023/02/17 13:03:47;;;;;;;0.73;0.70;;;17.50;61.90;;;;;;5048499;28;20189;-45
2023/02/17 13:06:35;;;;;;;0.97;0.90;;;17.50;62.00;;;;;;5051767;28;20198;-49
2023/02/17 13:09:32;;;;;;;1.20;0.90;;;17.50;61.90;;;;;;5045250;28;20225;-49
2023/02/17 13:12:25;;;;;;;0.83;0.83;;;17.50;61.90;;;;;;5065564;28;20197;-48
2023/02/17 13:15:28;;;;;;;1.53;0.70;;;17.60;61.90;;;;;;5072981;28;20208;-49
2023/02/17 13:18:01;;;;;;;1.90;1.10;;;17.50;61.90;;;;;;5061616;28;20202;-48
2023/02/17 13:20:54;;;;;;;0.80;0.80;;;17.50;62.00;;;;;;5069529;28;20255;-48
2023/02/17 13:23:35;;;;;;;1.13;0.90;;;17.60;62.00;;;;;;5079021;28;20208;-48
2023/02/17 13:26:25;;;;;;;1.27;1.07;;;17.50;61.90;;;;;;5094544;28;20259;-45
2023/02/17 13:29:07;;;;;;;1.37;0.90;;;17.60;61.90;;;;;;5074616;28;20553;-45
2023/02/17 13:31:53;;;;;;;1.27;0.93;;;17.50;61.90;;;;;;5094946;28;20789;-49
2023/02/17 13:34:33;;;;;;;1.00;0.90;;;17.70;61.60;;;;;;5072861;28;20688;-49
2023/02/17 13:37:58;;;;;;;1.27;0.80;;;17.70;61.50;;;;;;5089383;28;20205;-48
2023/02/17 13:40:33;;;;;;;1.23;0.90;;;17.60;61.50;;;;;;5086376;28;20517;-45
2023/02/17 13:43:19;;;;;;;1.43;0.90;;;17.60;61.70;;;;;;5090879;28;20230;-45
2023/02/17 13:46:02;;;;;;;1.30;0.80;;;17.60;62.30;;;;;;5058249;28;20669;-45